createdAt,value
2018-03-25T00:05:24.917Z,48.4
2018-03-25T00:22:11.495Z,49.2
2018-03-25T00:38:56.728Z,49.2
2018-03-25T00:55:42.608Z,48.4
2018-03-25T01:12:28.341Z,49.2
2018-03-25T01:29:14.046Z,48.8
2018-03-25T01:45:59.632Z,48.8
2018-03-25T02:02:45.289Z,48.8
2018-03-25T02:19:30.852Z,48.8
2018-03-25T02:36:16.401Z,48.8
2018-03-25T02:53:01.642Z,48.8
2018-03-25T03:09:46.928Z,48.8
2018-03-25T03:26:32.171Z,48.8
2018-03-25T03:43:17.248Z,48.8
2018-03-25T04:00:02.363Z,48.8
2018-03-25T04:16:47.308Z,48.8
2018-03-25T04:33:32.267Z,48.8
2018-03-25T04:50:17.219Z,48.8
2018-03-25T05:07:02.021Z,48.8
2018-03-25T05:23:46.866Z,48.8
2018-03-25T05:40:31.750Z,48.8
2018-03-25T05:57:16.485Z,48.8
2018-03-25T06:14:01.966Z,48.0
2018-03-25T06:30:46.152Z,48.0
2018-03-25T06:47:31.180Z,48.0
2018-03-25T07:04:16.209Z,48.4
2018-03-25T07:21:01.231Z,48.4
2018-03-25T07:37:46.261Z,47.6
2018-03-25T07:54:31.350Z,48.0
2018-03-25T08:11:16.474Z,48.0
2018-03-25T08:28:02.257Z,48.0
2018-03-25T08:44:47.901Z,48.0
2018-03-25T09:01:33.531Z,47.6
2018-03-25T09:18:19.332Z,47.6
2018-03-25T09:35:05.071Z,47.2
2018-03-25T09:51:50.987Z,47.2
2018-03-25T10:08:36.832Z,47.2
2018-03-25T10:25:22.986Z,47.2
2018-03-25T10:42:09.096Z,47.2
2018-03-25T10:58:56.016Z,46.8
2018-03-25T11:15:41.827Z,46.8
2018-03-25T11:32:28.334Z,46.4
2018-03-25T11:49:15.186Z,46.4
2018-03-25T12:06:02.646Z,46.0
2018-03-25T12:22:49.779Z,46.0
2018-03-25T12:39:37.011Z,46.0
2018-03-25T12:56:24.425Z,46.4
2018-03-25T13:13:11.549Z,46.4
2018-03-25T13:29:58.611Z,46.4
2018-03-25T13:46:45.539Z,46.4
2018-03-25T14:03:32.439Z,46.4
2018-03-25T14:20:19.333Z,46.8
2018-03-25T14:37:06.075Z,46.8
2018-03-25T14:53:52.960Z,46.8
2018-03-25T15:10:39.827Z,46.8
2018-03-25T15:27:26.588Z,46.8
2018-03-25T15:44:13.232Z,46.8
2018-03-25T16:01:00.110Z,46.8
2018-03-25T16:17:46.760Z,46.8
2018-03-25T16:34:33.609Z,46.8
2018-03-25T16:51:20.486Z,46.8
2018-03-25T17:08:07.519Z,46.8
2018-03-25T17:24:54.165Z,46.8
2018-03-25T17:41:40.928Z,46.8
2018-03-25T17:58:27.724Z,47.2
2018-03-25T18:15:14.572Z,47.2
2018-03-25T18:32:01.320Z,47.2
2018-03-25T18:48:48.069Z,47.2
2018-03-25T19:05:34.633Z,47.2
2018-03-25T19:22:21.460Z,47.2
2018-03-25T19:39:07.070Z,47.2
2018-03-25T19:55:53.035Z,47.2
2018-03-25T20:12:38.769Z,47.2
2018-03-25T20:29:25.504Z,47.2
2018-03-25T20:46:10.532Z,47.2
2018-03-25T21:02:56.371Z,47.2
2018-03-25T21:19:42.183Z,47.2
2018-03-25T21:36:28.197Z,47.2
2018-03-25T21:53:13.702Z,47.2
2018-03-25T22:09:59.281Z,47.2
2018-03-25T22:26:44.853Z,47.2
2018-03-25T22:43:30.412Z,47.2
2018-03-25T23:00:15.818Z,46.8
2018-03-25T23:17:01.165Z,46.8
2018-03-25T23:33:46.621Z,46.8
2018-03-25T23:50:31.885Z,46.8
